sensor_id;sensor_type;location;lat;lon;timestamp;P1;durP1;ratioP1;P2;durP2;ratioP2
39020;SDS011;25188;51.958;5.842;2022-12-31T00:01:00;4.95;;;2.75;;
39020;SDS011;25188;51.958;5.842;2022-12-31T00:03:26;5.00;;;2.90;;
39020;SDS011;25188;51.958;5.842;2022-12-31T00:05:52;4.80;;;2.65;;
39020;SDS011;25188;51.958;5.842;2022-12-31T00:08:18;6.03;;;2.33;;
39020;SDS011;25188;51.958;5.842;2022-12-31T00:10:44;5.53;;;2.50;;
39020;SDS011;25188;51.958;5.842;2022-12-31T00:13:10;4.65;;;2.10;;
39020;SDS011;25188;51.958;5.842;2022-12-31T00:15:40;2.78;;;1.30;;
39020;SDS011;25188;51.958;5.842;2022-12-31T00:18:06;3.78;;;1.10;;
39020;SDS011;25188;51.958;5.842;2022-12-31T00:20:32;2.50;;;0.60;;
39020;SDS011;25188;51.958;5.842;2022-12-31T00:22:58;2.03;;;0.63;;
39020;SDS011;25188;51.958;5.842;2022-12-31T00:25:23;2.00;;;0.60;;
39020;SDS011;25188;51.958;5.842;2022-12-31T00:27:49;1.63;;;0.60;;
39020;SDS011;25188;51.958;5.842;2022-12-31T00:30:15;2.03;;;0.63;;
39020;SDS011;25188;51.958;5.842;2022-12-31T00:32:41;4.18;;;0.50;;
39020;SDS011;25188;51.958;5.842;2022-12-31T00:35:07;2.95;;;0.70;;
39020;SDS011;25188;51.958;5.842;2022-12-31T00:37:33;3.60;;;0.68;;
39020;SDS011;25188;51.958;5.842;2022-12-31T00:39:59;4.30;;;0.75;;
39020;SDS011;25188;51.958;5.842;2022-12-31T00:42:24;2.40;;;0.90;;
39020;SDS011;25188;51.958;5.842;2022-12-31T00:44:50;4.32;;;1.00;;
39020;SDS011;25188;51.958;5.842;2022-12-31T00:47:15;1.70;;;0.85;;
39020;SDS011;25188;51.958;5.842;2022-12-31T00:49:41;3.42;;;0.90;;
39020;SDS011;25188;51.958;5.842;2022-12-31T00:52:07;3.53;;;0.90;;
39020;SDS011;25188;51.958;5.842;2022-12-31T00:54:33;4.70;;;1.10;;
39020;SDS011;25188;51.958;5.842;2022-12-31T00:56:58;3.67;;;1.20;;
39020;SDS011;25188;51.958;5.842;2022-12-31T00:59:24;4.75;;;1.33;;
39020;SDS011;25188;51.958;5.842;2022-12-31T01:01:50;4.15;;;1.92;;
39020;SDS011;25188;51.958;5.842;2022-12-31T01:04:16;3.53;;;1.75;;
39020;SDS011;25188;51.958;5.842;2022-12-31T01:06:44;5.07;;;2.45;;
39020;SDS011;25188;51.958;5.842;2022-12-31T01:09:11;4.60;;;2.40;;
39020;SDS011;25188;51.958;5.842;2022-12-31T01:11:38;5.50;;;2.70;;
39020;SDS011;25188;51.958;5.842;2022-12-31T01:14:08;4.70;;;2.28;;
39020;SDS011;25188;51.958;5.842;2022-12-31T01:16:37;7.18;;;2.55;;
39020;SDS011;25188;51.958;5.842;2022-12-31T01:19:07;6.80;;;2.75;;
39020;SDS011;25188;51.958;5.842;2022-12-31T01:21:35;7.07;;;2.80;;
39020;SDS011;25188;51.958;5.842;2022-12-31T01:24:02;5.10;;;2.10;;
39020;SDS011;25188;51.958;5.842;2022-12-31T01:26:28;5.78;;;2.30;;
39020;SDS011;25188;51.958;5.842;2022-12-31T01:28:54;5.13;;;2.05;;
39020;SDS011;25188;51.958;5.842;2022-12-31T01:31:20;6.07;;;2.03;;
39020;SDS011;25188;51.958;5.842;2022-12-31T01:33:47;4.57;;;2.03;;
39020;SDS011;25188;51.958;5.842;2022-12-31T01:36:15;6.85;;;1.65;;
39020;SDS011;25188;51.958;5.842;2022-12-31T01:38:45;4.95;;;2.03;;
39020;SDS011;25188;51.958;5.842;2022-12-31T01:41:15;6.10;;;2.20;;
39020;SDS011;25188;51.958;5.842;2022-12-31T01:43:47;5.43;;;2.05;;
39020;SDS011;25188;51.958;5.842;2022-12-31T01:46:26;4.18;;;1.65;;
39020;SDS011;25188;51.958;5.842;2022-12-31T01:49:12;3.83;;;1.58;;
39020;SDS011;25188;51.958;5.842;2022-12-31T01:51:44;4.47;;;1.60;;
39020;SDS011;25188;51.958;5.842;2022-12-31T01:54:13;5.28;;;1.80;;
39020;SDS011;25188;51.958;5.842;2022-12-31T01:56:42;5.30;;;2.17;;
39020;SDS011;25188;51.958;5.842;2022-12-31T01:59:11;3.83;;;1.88;;
39020;SDS011;25188;51.958;5.842;2022-12-31T02:01:41;4.88;;;2.13;;
39020;SDS011;25188;51.958;5.842;2022-12-31T02:04:08;5.95;;;1.98;;
39020;SDS011;25188;51.958;5.842;2022-12-31T02:06:40;6.00;;;1.92;;
39020;SDS011;25188;51.958;5.842;2022-12-31T02:09:26;5.05;;;2.10;;
39020;SDS011;25188;51.958;5.842;2022-12-31T02:11:52;8.00;;;2.40;;
39020;SDS011;25188;51.958;5.842;2022-12-31T02:14:37;8.98;;;2.67;;
39020;SDS011;25188;51.958;5.842;2022-12-31T02:17:09;4.78;;;2.30;;
39020;SDS011;25188;51.958;5.842;2022-12-31T02:25:20;4.32;;;1.98;;
39020;SDS011;25188;51.958;5.842;2022-12-31T02:30:51;6.85;;;2.45;;
39020;SDS011;25188;51.958;5.842;2022-12-31T02:35:52;7.25;;;1.80;;
39020;SDS011;25188;51.958;5.842;2022-12-31T02:38:34;5.82;;;1.65;;
39020;SDS011;25188;51.958;5.842;2022-12-31T02:41:04;3.35;;;1.50;;
39020;SDS011;25188;51.958;5.842;2022-12-31T02:43:35;5.03;;;1.50;;
39020;SDS011;25188;51.958;5.842;2022-12-31T02:46:20;3.90;;;1.55;;
39020;SDS011;25188;51.958;5.842;2022-12-31T02:49:03;3.60;;;1.42;;
39020;SDS011;25188;51.958;5.842;2022-12-31T02:51:50;5.28;;;1.75;;
39020;SDS011;25188;51.958;5.842;2022-12-31T02:54:43;3.95;;;1.60;;
39020;SDS011;25188;51.958;5.842;2022-12-31T02:57:16;4.60;;;1.60;;
39020;SDS011;25188;51.958;5.842;2022-12-31T02:59:54;3.67;;;1.80;;
39020;SDS011;25188;51.958;5.842;2022-12-31T03:02:43;4.47;;;1.65;;
39020;SDS011;25188;51.958;5.842;2022-12-31T03:05:10;5.43;;;2.00;;
39020;SDS011;25188;51.958;5.842;2022-12-31T03:07:38;6.10;;;1.88;;
39020;SDS011;25188;51.958;5.842;2022-12-31T03:10:05;4.72;;;1.73;;
39020;SDS011;25188;51.958;5.842;2022-12-31T03:12:32;3.75;;;1.77;;
39020;SDS011;25188;51.958;5.842;2022-12-31T03:15:12;4.50;;;1.75;;
39020;SDS011;25188;51.958;5.842;2022-12-31T03:20:18;5.47;;;1.58;;
39020;SDS011;25188;51.958;5.842;2022-12-31T03:23:25;4.65;;;1.67;;
39020;SDS011;25188;51.958;5.842;2022-12-31T03:25:51;3.13;;;1.38;;
39020;SDS011;25188;51.958;5.842;2022-12-31T03:28:18;5.55;;;1.63;;
39020;SDS011;25188;51.958;5.842;2022-12-31T03:30:47;5.13;;;1.50;;
39020;SDS011;25188;51.958;5.842;2022-12-31T03:33:14;4.18;;;1.25;;
39020;SDS011;25188;51.958;5.842;2022-12-31T03:35:41;9.20;;;2.10;;
39020;SDS011;25188;51.958;5.842;2022-12-31T03:38:08;5.60;;;2.42;;
39020;SDS011;25188;51.958;5.842;2022-12-31T03:40:38;5.93;;;2.00;;
39020;SDS011;25188;51.958;5.842;2022-12-31T03:43:06;7.10;;;2.65;;
39020;SDS011;25188;51.958;5.842;2022-12-31T03:45:31;10.38;;;2.50;;
39020;SDS011;25188;51.958;5.842;2022-12-31T03:47:58;6.80;;;2.63;;
39020;SDS011;25188;51.958;5.842;2022-12-31T03:50:25;11.02;;;3.00;;
39020;SDS011;25188;51.958;5.842;2022-12-31T03:52:51;8.77;;;3.17;;
39020;SDS011;25188;51.958;5.842;2022-12-31T03:55:16;9.40;;;3.65;;
39020;SDS011;25188;51.958;5.842;2022-12-31T03:57:42;11.95;;;4.47;;
39020;SDS011;25188;51.958;5.842;2022-12-31T04:00:09;14.73;;;4.18;;
39020;SDS011;25188;51.958;5.842;2022-12-31T04:02:37;14.07;;;5.15;;
39020;SDS011;25188;51.958;5.842;2022-12-31T04:05:03;15.65;;;5.75;;
39020;SDS011;25188;51.958;5.842;2022-12-31T04:07:30;15.55;;;5.63;;
39020;SDS011;25188;51.958;5.842;2022-12-31T04:09:56;14.98;;;6.10;;
39020;SDS011;25188;51.958;5.842;2022-12-31T04:12:22;12.43;;;5.22;;
39020;SDS011;25188;51.958;5.842;2022-12-31T04:14:47;14.48;;;5.63;;
39020;SDS011;25188;51.958;5.842;2022-12-31T04:17:13;13.95;;;5.82;;
39020;SDS011;25188;51.958;5.842;2022-12-31T04:19:39;12.57;;;5.20;;
39020;SDS011;25188;51.958;5.842;2022-12-31T04:22:04;11.70;;;5.00;;
39020;SDS011;25188;51.958;5.842;2022-12-31T04:24:30;11.68;;;5.30;;
39020;SDS011;25188;51.958;5.842;2022-12-31T04:26:56;15.73;;;4.90;;
39020;SDS011;25188;51.958;5.842;2022-12-31T04:29:22;12.00;;;5.30;;
39020;SDS011;25188;51.958;5.842;2022-12-31T04:31:47;10.32;;;4.35;;
39020;SDS011;25188;51.958;5.842;2022-12-31T04:34:13;15.40;;;5.68;;
39020;SDS011;25188;51.958;5.842;2022-12-31T04:36:39;10.50;;;4.40;;
39020;SDS011;25188;51.958;5.842;2022-12-31T04:39:04;12.48;;;5.07;;
39020;SDS011;25188;51.958;5.842;2022-12-31T04:41:30;11.63;;;4.53;;
39020;SDS011;25188;51.958;5.842;2022-12-31T04:43:56;13.07;;;5.00;;
39020;SDS011;25188;51.958;5.842;2022-12-31T04:46:24;11.15;;;4.30;;
39020;SDS011;25188;51.958;5.842;2022-12-31T04:48:52;11.02;;;4.20;;
39020;SDS011;25188;51.958;5.842;2022-12-31T04:51:18;11.23;;;4.55;;
39020;SDS011;25188;51.958;5.842;2022-12-31T04:53:44;10.57;;;4.30;;
39020;SDS011;25188;51.958;5.842;2022-12-31T04:56:10;10.55;;;4.45;;
39020;SDS011;25188;51.958;5.842;2022-12-31T04:58:36;10.57;;;4.43;;
39020;SDS011;25188;51.958;5.842;2022-12-31T05:01:02;11.68;;;4.10;;
39020;SDS011;25188;51.958;5.842;2022-12-31T05:03:29;10.10;;;4.45;;
39020;SDS011;25188;51.958;5.842;2022-12-31T05:06:05;6.47;;;3.00;;
39020;SDS011;25188;51.958;5.842;2022-12-31T05:08:32;8.95;;;3.20;;
39020;SDS011;25188;51.958;5.842;2022-12-31T05:10:58;7.85;;;3.20;;
39020;SDS011;25188;51.958;5.842;2022-12-31T05:13:25;6.10;;;2.90;;
39020;SDS011;25188;51.958;5.842;2022-12-31T05:15:51;6.63;;;2.70;;
39020;SDS011;25188;51.958;5.842;2022-12-31T05:18:17;5.72;;;2.50;;
39020;SDS011;25188;51.958;5.842;2022-12-31T05:20:43;4.70;;;2.10;;
39020;SDS011;25188;51.958;5.842;2022-12-31T05:23:09;3.83;;;1.80;;
39020;SDS011;25188;51.958;5.842;2022-12-31T05:25:34;3.83;;;1.45;;
39020;SDS011;25188;51.958;5.842;2022-12-31T05:28:00;2.83;;;1.10;;
39020;SDS011;25188;51.958;5.842;2022-12-31T05:30:26;3.60;;;1.25;;
39020;SDS011;25188;51.958;5.842;2022-12-31T05:32:52;2.63;;;1.17;;
39020;SDS011;25188;51.958;5.842;2022-12-31T05:35:17;2.78;;;0.90;;
39020;SDS011;25188;51.958;5.842;2022-12-31T05:37:43;1.83;;;0.80;;
39020;SDS011;25188;51.958;5.842;2022-12-31T05:40:09;4.65;;;0.80;;
39020;SDS011;25188;51.958;5.842;2022-12-31T05:42:35;2.85;;;0.80;;
39020;SDS011;25188;51.958;5.842;2022-12-31T05:45:01;2.58;;;0.95;;
39020;SDS011;25188;51.958;5.842;2022-12-31T05:47:27;1.90;;;0.80;;
39020;SDS011;25188;51.958;5.842;2022-12-31T05:49:53;1.75;;;0.80;;
39020;SDS011;25188;51.958;5.842;2022-12-31T05:52:19;1.60;;;0.75;;
39020;SDS011;25188;51.958;5.842;2022-12-31T05:54:45;1.88;;;0.77;;
39020;SDS011;25188;51.958;5.842;2022-12-31T05:57:10;1.88;;;0.70;;
39020;SDS011;25188;51.958;5.842;2022-12-31T05:59:36;1.65;;;0.60;;
39020;SDS011;25188;51.958;5.842;2022-12-31T06:02:02;1.63;;;0.60;;
39020;SDS011;25188;51.958;5.842;2022-12-31T06:04:28;2.00;;;0.65;;
39020;SDS011;25188;51.958;5.842;2022-12-31T06:06:53;1.65;;;0.70;;
39020;SDS011;25188;51.958;5.842;2022-12-31T06:09:19;1.33;;;0.50;;
39020;SDS011;25188;51.958;5.842;2022-12-31T06:11:45;1.75;;;0.60;;
39020;SDS011;25188;51.958;5.842;2022-12-31T06:14:11;2.28;;;0.80;;
39020;SDS011;25188;51.958;5.842;2022-12-31T06:16:40;1.60;;;0.75;;
39020;SDS011;25188;51.958;5.842;2022-12-31T06:19:06;2.10;;;0.70;;
39020;SDS011;25188;51.958;5.842;2022-12-31T06:21:32;2.00;;;0.85;;
39020;SDS011;25188;51.958;5.842;2022-12-31T06:23:58;2.17;;;0.75;;
39020;SDS011;25188;51.958;5.842;2022-12-31T06:26:24;1.92;;;0.70;;
39020;SDS011;25188;51.958;5.842;2022-12-31T06:28:50;2.47;;;0.80;;
39020;SDS011;25188;51.958;5.842;2022-12-31T06:31:16;1.88;;;0.75;;
39020;SDS011;25188;51.958;5.842;2022-12-31T06:33:42;2.05;;;0.70;;
39020;SDS011;25188;51.958;5.842;2022-12-31T06:36:11;2.33;;;0.60;;
39020;SDS011;25188;51.958;5.842;2022-12-31T06:38:38;1.90;;;0.50;;
39020;SDS011;25188;51.958;5.842;2022-12-31T06:41:05;2.67;;;0.50;;
39020;SDS011;25188;51.958;5.842;2022-12-31T06:43:33;1.23;;;0.60;;
39020;SDS011;25188;51.958;5.842;2022-12-31T06:45:59;1.75;;;0.70;;
39020;SDS011;25188;51.958;5.842;2022-12-31T06:48:28;1.13;;;0.50;;
39020;SDS011;25188;51.958;5.842;2022-12-31T06:50:54;1.50;;;0.60;;
39020;SDS011;25188;51.958;5.842;2022-12-31T06:53:20;2.08;;;0.70;;
39020;SDS011;25188;51.958;5.842;2022-12-31T06:55:47;2.42;;;0.70;;
39020;SDS011;25188;51.958;5.842;2022-12-31T06:58:13;1.40;;;0.60;;
39020;SDS011;25188;51.958;5.842;2022-12-31T07:00:40;1.00;;;0.40;;
39020;SDS011;25188;51.958;5.842;2022-12-31T07:03:28;3.55;;;0.60;;
39020;SDS011;25188;51.958;5.842;2022-12-31T07:06:27;1.90;;;0.70;;
39020;SDS011;25188;51.958;5.842;2022-12-31T07:11:59;1.90;;;0.80;;
39020;SDS011;25188;51.958;5.842;2022-12-31T07:14:40;2.47;;;0.90;;
39020;SDS011;25188;51.958;5.842;2022-12-31T07:17:13;2.28;;;0.95;;
39020;SDS011;25188;51.958;5.842;2022-12-31T07:20:13;2.40;;;0.90;;
39020;SDS011;25188;51.958;5.842;2022-12-31T07:22:41;2.17;;;0.85;;
39020;SDS011;25188;51.958;5.842;2022-12-31T07:25:16;2.03;;;0.95;;
39020;SDS011;25188;51.958;5.842;2022-12-31T07:34:03;2.30;;;1.00;;
39020;SDS011;25188;51.958;5.842;2022-12-31T07:36:49;4.00;;;1.10;;
39020;SDS011;25188;51.958;5.842;2022-12-31T07:39:31;3.40;;;0.95;;
39020;SDS011;25188;51.958;5.842;2022-12-31T07:42:23;3.47;;;1.25;;
39020;SDS011;25188;51.958;5.842;2022-12-31T07:45:18;4.03;;;1.33;;
39020;SDS011;25188;51.958;5.842;2022-12-31T07:47:49;6.55;;;1.48;;
39020;SDS011;25188;51.958;5.842;2022-12-31T07:50:15;5.65;;;1.60;;
39020;SDS011;25188;51.958;5.842;2022-12-31T07:52:43;5.80;;;2.10;;
39020;SDS011;25188;51.958;5.842;2022-12-31T07:55:09;4.38;;;1.90;;
39020;SDS011;25188;51.958;5.842;2022-12-31T07:57:38;2.92;;;1.65;;
39020;SDS011;25188;51.958;5.842;2022-12-31T08:00:25;6.45;;;1.98;;
39020;SDS011;25188;51.958;5.842;2022-12-31T08:11:34;4.35;;;1.15;;
39020;SDS011;25188;51.958;5.842;2022-12-31T08:14:22;5.82;;;1.52;;
39020;SDS011;25188;51.958;5.842;2022-12-31T08:16:48;4.70;;;1.27;;
39020;SDS011;25188;51.958;5.842;2022-12-31T08:19:22;1.65;;;0.60;;
39020;SDS011;25188;51.958;5.842;2022-12-31T08:27:36;4.93;;;0.70;;
39020;SDS011;25188;51.958;5.842;2022-12-31T08:32:45;2.83;;;0.60;;
39020;SDS011;25188;51.958;5.842;2022-12-31T08:38:25;2.17;;;0.50;;
39020;SDS011;25188;51.958;5.842;2022-12-31T08:46:28;3.85;;;0.57;;
39020;SDS011;25188;51.958;5.842;2022-12-31T08:49:04;2.22;;;0.88;;
39020;SDS011;25188;51.958;5.842;2022-12-31T08:51:33;2.67;;;0.70;;
39020;SDS011;25188;51.958;5.842;2022-12-31T08:53:59;4.07;;;1.05;;
39020;SDS011;25188;51.958;5.842;2022-12-31T08:56:29;2.15;;;0.85;;
39020;SDS011;25188;51.958;5.842;2022-12-31T08:59:07;3.90;;;0.95;;
39020;SDS011;25188;51.958;5.842;2022-12-31T09:06:55;149.93;;;91.10;;
39020;SDS011;25188;51.958;5.842;2022-12-31T09:09:35;186.68;;;106.78;;
39020;SDS011;25188;51.958;5.842;2022-12-31T09:15:12;101.25;;;59.92;;
39020;SDS011;25188;51.958;5.842;2022-12-31T09:20:23;44.53;;;27.35;;
39020;SDS011;25188;51.958;5.842;2022-12-31T09:22:54;50.10;;;26.80;;
39020;SDS011;25188;51.958;5.842;2022-12-31T09:25:21;31.20;;;18.67;;
39020;SDS011;25188;51.958;5.842;2022-12-31T09:30:44;105.10;;;59.83;;
39020;SDS011;25188;51.958;5.842;2022-12-31T09:36:00;101.28;;;54.80;;
39020;SDS011;25188;51.958;5.842;2022-12-31T09:38:36;113.38;;;57.33;;
39020;SDS011;25188;51.958;5.842;2022-12-31T09:55:22;16.10;;;9.50;;
39020;SDS011;25188;51.958;5.842;2022-12-31T10:00:57;12.82;;;6.20;;
39020;SDS011;25188;51.958;5.842;2022-12-31T10:17:29;6.45;;;3.40;;
39020;SDS011;25188;51.958;5.842;2022-12-31T10:31:36;25.75;;;16.65;;
39020;SDS011;25188;51.958;5.842;2022-12-31T10:34:23;17.63;;;10.57;;
39020;SDS011;25188;51.958;5.842;2022-12-31T10:36:57;14.05;;;6.32;;
39020;SDS011;25188;51.958;5.842;2022-12-31T10:40:10;10.25;;;4.00;;
39020;SDS011;25188;51.958;5.842;2022-12-31T10:43:07;5.82;;;2.72;;
39020;SDS011;25188;51.958;5.842;2022-12-31T11:00:21;12.65;;;5.63;;
39020;SDS011;25188;51.958;5.842;2022-12-31T11:19:16;6.40;;;2.30;;
39020;SDS011;25188;51.958;5.842;2022-12-31T11:37:48;13.32;;;4.57;;
39020;SDS011;25188;51.958;5.842;2022-12-31T11:40:23;9.50;;;3.28;;
39020;SDS011;25188;51.958;5.842;2022-12-31T11:57:26;9.20;;;2.72;;
39020;SDS011;25188;51.958;5.842;2022-12-31T12:00:05;7.55;;;2.33;;
39020;SDS011;25188;51.958;5.842;2022-12-31T12:02:37;7.90;;;2.40;;
39020;SDS011;25188;51.958;5.842;2022-12-31T12:05:08;13.50;;;7.65;;
39020;SDS011;25188;51.958;5.842;2022-12-31T12:07:37;12.13;;;4.95;;
39020;SDS011;25188;51.958;5.842;2022-12-31T12:10:10;10.85;;;3.80;;
39020;SDS011;25188;51.958;5.842;2022-12-31T12:12:56;12.23;;;4.57;;
39020;SDS011;25188;51.958;5.842;2022-12-31T12:15:27;11.23;;;3.25;;
39020;SDS011;25188;51.958;5.842;2022-12-31T12:17:58;6.47;;;2.10;;
39020;SDS011;25188;51.958;5.842;2022-12-31T12:20:31;17.10;;;9.80;;
39020;SDS011;25188;51.958;5.842;2022-12-31T12:22:59;20.60;;;10.32;;
39020;SDS011;25188;51.958;5.842;2022-12-31T12:25:36;16.17;;;6.55;;
39020;SDS011;25188;51.958;5.842;2022-12-31T12:28:23;9.95;;;4.68;;
39020;SDS011;25188;51.958;5.842;2022-12-31T12:30:55;13.27;;;6.38;;
39020;SDS011;25188;51.958;5.842;2022-12-31T12:33:27;25.20;;;12.40;;
39020;SDS011;25188;51.958;5.842;2022-12-31T12:36:11;14.68;;;7.60;;
39020;SDS011;25188;51.958;5.842;2022-12-31T12:41:10;17.38;;;6.15;;
39020;SDS011;25188;51.958;5.842;2022-12-31T12:43:44;12.93;;;4.68;;
39020;SDS011;25188;51.958;5.842;2022-12-31T12:46:20;11.30;;;5.40;;
39020;SDS011;25188;51.958;5.842;2022-12-31T12:51:31;19.13;;;9.30;;
39020;SDS011;25188;51.958;5.842;2022-12-31T12:54:11;19.25;;;7.03;;
39020;SDS011;25188;51.958;5.842;2022-12-31T12:59:41;10.13;;;4.43;;
39020;SDS011;25188;51.958;5.842;2022-12-31T13:16:33;13.55;;;4.05;;
39020;SDS011;25188;51.958;5.842;2022-12-31T13:27:39;9.30;;;3.00;;
39020;SDS011;25188;51.958;5.842;2022-12-31T13:30:18;6.00;;;1.95;;
39020;SDS011;25188;51.958;5.842;2022-12-31T13:32:54;8.63;;;1.90;;
39020;SDS011;25188;51.958;5.842;2022-12-31T13:35:28;8.63;;;2.15;;
39020;SDS011;25188;51.958;5.842;2022-12-31T13:38:12;10.68;;;2.25;;
39020;SDS011;25188;51.958;5.842;2022-12-31T13:46:09;7.13;;;2.05;;
39020;SDS011;25188;51.958;5.842;2022-12-31T13:48:46;10.57;;;3.72;;
39020;SDS011;25188;51.958;5.842;2022-12-31T13:51:21;6.18;;;1.85;;
39020;SDS011;25188;51.958;5.842;2022-12-31T13:54:02;13.40;;;4.15;;
39020;SDS011;25188;51.958;5.842;2022-12-31T13:56:52;16.63;;;5.78;;
39020;SDS011;25188;51.958;5.842;2022-12-31T13:59:30;17.35;;;8.25;;
39020;SDS011;25188;51.958;5.842;2022-12-31T14:02:02;19.83;;;6.57;;
39020;SDS011;25188;51.958;5.842;2022-12-31T14:04:52;10.93;;;4.32;;
39020;SDS011;25188;51.958;5.842;2022-12-31T14:07:25;10.25;;;4.78;;
39020;SDS011;25188;51.958;5.842;2022-12-31T14:09:56;17.52;;;5.00;;
39020;SDS011;25188;51.958;5.842;2022-12-31T14:17:45;7.93;;;3.15;;
39020;SDS011;25188;51.958;5.842;2022-12-31T14:23:12;14.25;;;3.25;;
39020;SDS011;25188;51.958;5.842;2022-12-31T14:25:50;10.60;;;2.88;;
39020;SDS011;25188;51.958;5.842;2022-12-31T14:28:29;11.07;;;3.15;;
39020;SDS011;25188;51.958;5.842;2022-12-31T14:31:11;8.93;;;3.25;;
39020;SDS011;25188;51.958;5.842;2022-12-31T14:34:28;9.80;;;3.40;;
39020;SDS011;25188;51.958;5.842;2022-12-31T14:36:54;6.68;;;2.67;;
39020;SDS011;25188;51.958;5.842;2022-12-31T14:42:35;11.40;;;2.22;;
39020;SDS011;25188;51.958;5.842;2022-12-31T14:51:03;14.85;;;4.00;;
39020;SDS011;25188;51.958;5.842;2022-12-31T14:53:30;8.70;;;3.28;;
39020;SDS011;25188;51.958;5.842;2022-12-31T14:56:01;8.05;;;3.25;;
39020;SDS011;25188;51.958;5.842;2022-12-31T14:58:53;15.95;;;6.32;;
39020;SDS011;25188;51.958;5.842;2022-12-31T15:01:24;11.48;;;4.47;;
39020;SDS011;25188;51.958;5.842;2022-12-31T15:03:51;20.20;;;9.75;;
39020;SDS011;25188;51.958;5.842;2022-12-31T15:16:54;11.55;;;4.53;;
39020;SDS011;25188;51.958;5.842;2022-12-31T15:22:38;10.20;;;2.70;;
39020;SDS011;25188;51.958;5.842;2022-12-31T15:28:05;13.02;;;2.70;;
39020;SDS011;25188;51.958;5.842;2022-12-31T15:30:45;9.85;;;3.22;;
39020;SDS011;25188;51.958;5.842;2022-12-31T15:35:52;12.23;;;2.80;;
39020;SDS011;25188;51.958;5.842;2022-12-31T15:44:31;13.60;;;2.70;;
39020;SDS011;25188;51.958;5.842;2022-12-31T15:46:42;11.45;;;2.30;;
39020;SDS011;25188;51.958;5.842;2022-12-31T15:49:13;18.63;;;7.03;;
39020;SDS011;25188;51.958;5.842;2022-12-31T15:54:56;8.20;;;3.50;;
39020;SDS011;25188;51.958;5.842;2022-12-31T16:00:13;12.82;;;3.72;;
39020;SDS011;25188;51.958;5.842;2022-12-31T16:02:41;10.05;;;3.17;;
39020;SDS011;25188;51.958;5.842;2022-12-31T16:05:20;12.82;;;4.25;;
39020;SDS011;25188;51.958;5.842;2022-12-31T16:07:50;13.88;;;5.07;;
39020;SDS011;25188;51.958;5.842;2022-12-31T16:10:22;12.20;;;5.38;;
39020;SDS011;25188;51.958;5.842;2022-12-31T16:12:53;9.65;;;3.00;;
39020;SDS011;25188;51.958;5.842;2022-12-31T16:15:21;14.05;;;5.75;;
39020;SDS011;25188;51.958;5.842;2022-12-31T16:18:07;10.05;;;3.83;;
39020;SDS011;25188;51.958;5.842;2022-12-31T16:20:39;13.95;;;2.95;;
39020;SDS011;25188;51.958;5.842;2022-12-31T16:23:20;99.20;;;84.30;;
39020;SDS011;25188;51.958;5.842;2022-12-31T16:25:47;21.55;;;14.32;;
39020;SDS011;25188;51.958;5.842;2022-12-31T16:28:19;17.45;;;6.93;;
39020;SDS011;25188;51.958;5.842;2022-12-31T16:31:13;16.73;;;7.07;;
39020;SDS011;25188;51.958;5.842;2022-12-31T16:33:38;10.43;;;4.30;;
39020;SDS011;25188;51.958;5.842;2022-12-31T16:36:04;8.68;;;3.60;;
39020;SDS011;25188;51.958;5.842;2022-12-31T16:38:34;10.32;;;2.75;;
39020;SDS011;25188;51.958;5.842;2022-12-31T16:43:34;11.32;;;3.03;;
39020;SDS011;25188;51.958;5.842;2022-12-31T16:46:07;11.85;;;4.05;;
39020;SDS011;25188;51.958;5.842;2022-12-31T16:48:39;9.13;;;2.33;;
39020;SDS011;25188;51.958;5.842;2022-12-31T16:51:09;10.38;;;1.80;;
39020;SDS011;25188;51.958;5.842;2022-12-31T16:53:42;7.38;;;2.60;;
39020;SDS011;25188;51.958;5.842;2022-12-31T16:56:08;8.73;;;2.78;;
39020;SDS011;25188;51.958;5.842;2022-12-31T16:58:35;9.90;;;3.30;;
39020;SDS011;25188;51.958;5.842;2022-12-31T17:01:09;12.38;;;3.47;;
39020;SDS011;25188;51.958;5.842;2022-12-31T17:03:40;9.85;;;3.95;;
39020;SDS011;25188;51.958;5.842;2022-12-31T17:08:40;7.30;;;2.80;;
39020;SDS011;25188;51.958;5.842;2022-12-31T17:11:26;9.10;;;2.95;;
39020;SDS011;25188;51.958;5.842;2022-12-31T17:16:33;10.23;;;4.55;;
39020;SDS011;25188;51.958;5.842;2022-12-31T17:19:01;15.43;;;6.85;;
39020;SDS011;25188;51.958;5.842;2022-12-31T17:21:28;19.52;;;8.98;;
39020;SDS011;25188;51.958;5.842;2022-12-31T17:23:58;15.93;;;8.70;;
39020;SDS011;25188;51.958;5.842;2022-12-31T17:26:26;13.25;;;6.28;;
39020;SDS011;25188;51.958;5.842;2022-12-31T17:28:55;10.25;;;4.15;;
39020;SDS011;25188;51.958;5.842;2022-12-31T17:31:33;9.82;;;3.80;;
39020;SDS011;25188;51.958;5.842;2022-12-31T17:42:08;8.88;;;4.30;;
39020;SDS011;25188;51.958;5.842;2022-12-31T17:44:36;11.13;;;6.88;;
39020;SDS011;25188;51.958;5.842;2022-12-31T17:47:06;17.48;;;8.07;;
39020;SDS011;25188;51.958;5.842;2022-12-31T17:49:35;18.77;;;8.48;;
39020;SDS011;25188;51.958;5.842;2022-12-31T17:52:10;11.63;;;6.03;;
39020;SDS011;25188;51.958;5.842;2022-12-31T17:54:37;11.85;;;4.68;;
39020;SDS011;25188;51.958;5.842;2022-12-31T17:57:03;10.48;;;4.38;;
39020;SDS011;25188;51.958;5.842;2022-12-31T17:59:29;19.05;;;6.82;;
39020;SDS011;25188;51.958;5.842;2022-12-31T18:01:59;12.38;;;4.88;;
39020;SDS011;25188;51.958;5.842;2022-12-31T18:04:28;16.83;;;9.57;;
39020;SDS011;25188;51.958;5.842;2022-12-31T18:06:55;37.75;;;24.33;;
39020;SDS011;25188;51.958;5.842;2022-12-31T18:09:23;54.20;;;40.03;;
39020;SDS011;25188;51.958;5.842;2022-12-31T18:11:49;30.48;;;20.15;;
39020;SDS011;25188;51.958;5.842;2022-12-31T18:14:15;33.60;;;19.50;;
39020;SDS011;25188;51.958;5.842;2022-12-31T18:16:41;26.52;;;16.70;;
39020;SDS011;25188;51.958;5.842;2022-12-31T18:19:11;21.83;;;13.15;;
39020;SDS011;25188;51.958;5.842;2022-12-31T18:21:41;15.50;;;8.55;;
39020;SDS011;25188;51.958;5.842;2022-12-31T18:24:10;13.52;;;6.88;;
39020;SDS011;25188;51.958;5.842;2022-12-31T18:26:42;18.00;;;10.55;;
39020;SDS011;25188;51.958;5.842;2022-12-31T18:29:15;16.83;;;8.90;;
39020;SDS011;25188;51.958;5.842;2022-12-31T18:31:45;14.80;;;7.88;;
39020;SDS011;25188;51.958;5.842;2022-12-31T18:34:13;15.10;;;7.53;;
39020;SDS011;25188;51.958;5.842;2022-12-31T18:36:40;16.02;;;8.52;;
39020;SDS011;25188;51.958;5.842;2022-12-31T18:39:07;18.92;;;9.48;;
39020;SDS011;25188;51.958;5.842;2022-12-31T18:41:35;15.02;;;7.75;;
39020;SDS011;25188;51.958;5.842;2022-12-31T18:44:04;12.88;;;5.85;;
39020;SDS011;25188;51.958;5.842;2022-12-31T18:46:30;15.93;;;7.55;;
39020;SDS011;25188;51.958;5.842;2022-12-31T18:48:56;18.85;;;9.60;;
39020;SDS011;25188;51.958;5.842;2022-12-31T18:51:22;14.68;;;7.20;;
39020;SDS011;25188;51.958;5.842;2022-12-31T18:53:48;16.98;;;7.38;;
39020;SDS011;25188;51.958;5.842;2022-12-31T18:56:15;18.15;;;8.60;;
39020;SDS011;25188;51.958;5.842;2022-12-31T18:58:43;14.30;;;7.95;;
39020;SDS011;25188;51.958;5.842;2022-12-31T19:01:23;14.35;;;7.57;;
39020;SDS011;25188;51.958;5.842;2022-12-31T19:03:53;12.63;;;6.97;;
39020;SDS011;25188;51.958;5.842;2022-12-31T19:06:19;15.70;;;6.53;;
39020;SDS011;25188;51.958;5.842;2022-12-31T19:08:45;13.68;;;6.70;;
39020;SDS011;25188;51.958;5.842;2022-12-31T19:11:14;18.02;;;9.48;;
39020;SDS011;25188;51.958;5.842;2022-12-31T19:13:40;17.10;;;9.23;;
39020;SDS011;25188;51.958;5.842;2022-12-31T19:16:07;17.48;;;9.85;;
39020;SDS011;25188;51.958;5.842;2022-12-31T19:18:33;15.68;;;6.75;;
39020;SDS011;25188;51.958;5.842;2022-12-31T19:20:59;22.45;;;11.05;;
39020;SDS011;25188;51.958;5.842;2022-12-31T19:23:26;21.40;;;10.55;;
39020;SDS011;25188;51.958;5.842;2022-12-31T19:25:51;16.50;;;8.38;;
39020;SDS011;25188;51.958;5.842;2022-12-31T19:28:21;13.43;;;7.32;;
39020;SDS011;25188;51.958;5.842;2022-12-31T19:30:48;15.07;;;6.35;;
39020;SDS011;25188;51.958;5.842;2022-12-31T19:33:15;13.27;;;4.90;;